createdAt,value
2023-01-23T00:01:35.350Z,45.90
2023-01-23T00:04:07.088Z,43.10
2023-01-23T00:06:50.672Z,42.80
2023-01-23T00:09:19.033Z,47.90
2023-01-23T00:11:50.078Z,31.10
2023-01-23T00:14:23.879Z,47.30
2023-01-23T00:16:54.875Z,47.60
2023-01-23T00:19:43.145Z,44.90
2023-01-23T00:22:16.065Z,49.30
2023-01-23T00:24:53.075Z,50.80
2023-01-23T00:27:41.279Z,42.40
2023-01-23T00:30:39.708Z,41.70
2023-01-23T00:33:10.545Z,36.20
2023-01-23T00:35:58.844Z,39.40
2023-01-23T00:38:36.099Z,41.40
2023-01-23T00:41:24.988Z,36.50
2023-01-23T00:44:14.682Z,38.20
2023-01-23T00:46:42.954Z,37.10
2023-01-23T00:49:14.189Z,40.50
2023-01-23T00:52:06.851Z,48.10
2023-01-23T00:54:38.302Z,38.70
2023-01-23T00:57:11.679Z,41.00
2023-01-23T00:59:41.760Z,40.80
2023-01-23T01:02:10.044Z,41.90
2023-01-23T01:04:38.156Z,36.50
2023-01-23T01:07:06.547Z,46.90
2023-01-23T01:09:34.926Z,41.40
2023-01-23T01:12:03.185Z,45.20
2023-01-23T01:14:32.192Z,41.80
2023-01-23T01:17:16.180Z,44.00
2023-01-23T01:19:49.824Z,41.30
2023-01-23T01:22:27.207Z,51.70
2023-01-23T01:24:58.582Z,49.60
2023-01-23T01:27:33.093Z,48.80
2023-01-23T01:30:04.815Z,54.80
2023-01-23T01:32:56.462Z,49.10
2023-01-23T01:35:48.902Z,49.90
2023-01-23T01:38:37.349Z,48.30
2023-01-23T01:41:15.527Z,43.30
2023-01-23T01:43:47.079Z,44.80
2023-01-23T01:46:20.026Z,43.50
2023-01-23T01:48:58.391Z,48.30
2023-01-23T01:51:47.417Z,47.20
2023-01-23T01:54:24.416Z,38.10
2023-01-23T02:00:23.433Z,45.50
2023-01-23T02:02:59.509Z,40.40
2023-01-23T02:05:39.776Z,40.50
2023-01-23T02:08:21.730Z,42.40
2023-01-23T02:10:55.861Z,34.60
2023-01-23T02:13:37.140Z,41.60
2023-01-23T02:16:46.705Z,40.00
2023-01-23T02:19:48.289Z,39.40
2023-01-23T02:22:30.015Z,42.90
2023-01-23T02:25:17.633Z,40.60
2023-01-23T02:27:52.351Z,38.20
2023-01-23T02:30:51.180Z,46.50
2023-01-23T02:33:25.999Z,29.60
2023-01-23T02:35:57.918Z,39.60
2023-01-23T02:38:38.179Z,42.80
2023-01-23T02:41:07.825Z,42.30
2023-01-23T02:43:38.775Z,40.10
2023-01-23T02:46:12.572Z,44.70
2023-01-23T02:48:45.001Z,39.10
2023-01-23T02:51:17.358Z,36.90
2023-01-23T02:53:48.890Z,38.70
2023-01-23T02:56:33.959Z,44.30
2023-01-23T02:59:23.378Z,43.90
2023-01-23T03:02:24.846Z,45.20
2023-01-23T03:05:03.355Z,41.20
2023-01-23T03:07:40.426Z,35.70
2023-01-23T03:10:17.462Z,47.90
2023-01-23T03:13:03.460Z,36.50
2023-01-23T03:15:42.727Z,41.50
2023-01-23T03:18:30.883Z,45.20
2023-01-23T03:21:19.487Z,44.40
2023-01-23T03:24:17.910Z,37.70
2023-01-23T03:27:01.400Z,47.10
2023-01-23T03:29:52.599Z,44.50
2023-01-23T03:32:41.037Z,42.00
2023-01-23T03:35:16.584Z,45.60
2023-01-23T03:37:48.716Z,39.70
2023-01-23T03:40:38.313Z,49.40
2023-01-23T03:43:17.326Z,42.90
2023-01-23T03:45:59.259Z,40.30
2023-01-23T03:48:34.048Z,36.70
2023-01-23T03:51:21.403Z,41.10
2023-01-23T03:53:49.967Z,47.90
2023-01-23T03:56:20.996Z,46.80
2023-01-23T04:01:20.450Z,50.20
2023-01-23T04:03:49.583Z,50.20
2023-01-23T04:06:38.883Z,47.70
2023-01-23T04:09:27.454Z,44.00
2023-01-23T04:12:30.942Z,42.90
2023-01-23T04:15:19.664Z,36.90
2023-01-23T04:17:54.355Z,41.70
2023-01-23T04:20:26.898Z,25.40
2023-01-23T04:22:55.600Z,52.40
2023-01-23T04:25:29.292Z,52.10
2023-01-23T04:28:10.677Z,45.40
2023-01-23T04:30:42.555Z,50.30
2023-01-23T04:33:44.188Z,50.70
2023-01-23T04:36:13.881Z,42.30
2023-01-23T04:38:48.069Z,49.20
2023-01-23T04:41:36.304Z,42.90
2023-01-23T04:44:24.875Z,35.60
2023-01-23T04:47:21.701Z,42.30
2023-01-23T04:49:52.466Z,37.20
2023-01-23T04:52:24.040Z,38.10
2023-01-23T04:55:28.209Z,40.40
2023-01-23T04:58:00.492Z,45.40
2023-01-23T05:01:02.377Z,52.40
2023-01-23T05:03:51.953Z,43.00
2023-01-23T05:06:23.434Z,25.30
2023-01-23T05:09:09.101Z,47.20
2023-01-23T05:11:44.856Z,38.40
2023-01-23T05:14:16.980Z,43.70
2023-01-23T05:16:50.774Z,36.30
2023-01-23T05:19:36.584Z,36.60
2023-01-23T05:22:25.919Z,39.50
2023-01-23T05:25:00.433Z,34.00
2023-01-23T05:27:45.138Z,30.20
2023-01-23T05:33:24.630Z,42.00
2023-01-23T05:36:33.324Z,39.40
2023-01-23T05:39:22.418Z,34.00
2023-01-23T05:41:54.098Z,31.80
2023-01-23T05:44:56.296Z,39.70
2023-01-23T05:47:30.929Z,41.00
2023-01-23T05:50:02.093Z,39.70
2023-01-23T05:52:44.467Z,48.50
2023-01-23T05:55:15.385Z,56.50
2023-01-23T05:58:05.074Z,63.50
2023-01-23T06:04:13.060Z,41.80
2023-01-23T06:07:28.568Z,47.60
2023-01-23T06:10:00.691Z,48.70
2023-01-23T06:12:45.066Z,45.20
2023-01-23T06:15:16.326Z,42.00
2023-01-23T06:17:48.239Z,46.70
2023-01-23T06:20:23.152Z,39.00
2023-01-23T06:23:11.285Z,46.50
2023-01-23T06:25:42.408Z,36.30
2023-01-23T06:28:16.815Z,39.60
2023-01-23T06:30:48.320Z,40.00
2023-01-23T06:33:27.395Z,36.50
2023-01-23T06:36:01.609Z,37.20
2023-01-23T06:38:29.897Z,41.60
2023-01-23T06:41:08.599Z,49.20
2023-01-23T06:43:49.273Z,43.10
2023-01-23T06:46:21.902Z,40.10
2023-01-23T06:48:50.515Z,47.70
2023-01-23T06:51:19.175Z,39.70
2023-01-23T06:53:58.937Z,39.90
2023-01-23T06:56:27.568Z,45.90
2023-01-23T06:59:16.669Z,40.20
2023-01-23T07:01:50.577Z,43.70
2023-01-23T07:04:41.788Z,40.80
2023-01-23T07:07:15.953Z,45.20
2023-01-23T07:09:51.347Z,46.80
2023-01-23T07:12:21.672Z,49.50
2023-01-23T07:14:55.220Z,49.10
2023-01-23T07:17:30.779Z,39.30
2023-01-23T07:20:07.966Z,47.00
2023-01-23T07:23:18.487Z,49.10
2023-01-23T07:26:30.314Z,39.50
2023-01-23T07:28:58.518Z,47.20
2023-01-23T07:31:26.879Z,44.90
2023-01-23T07:34:09.272Z,50.20
2023-01-23T07:36:40.344Z,56.60
2023-01-23T07:39:16.112Z,50.00
2023-01-23T07:41:46.382Z,42.90
2023-01-23T07:44:17.575Z,43.80
2023-01-23T07:46:46.314Z,49.70
2023-01-23T07:49:17.158Z,48.00
2023-01-23T07:51:45.540Z,45.10
2023-01-23T07:54:16.450Z,46.00
2023-01-23T07:56:44.690Z,44.70
2023-01-23T07:59:21.707Z,51.30
2023-01-23T08:01:51.334Z,47.70
2023-01-23T08:04:20.421Z,51.10
2023-01-23T08:06:53.185Z,39.00
2023-01-23T08:09:21.379Z,42.30
2023-01-23T08:11:58.557Z,42.80
2023-01-23T08:14:30.421Z,46.40
2023-01-23T08:17:01.792Z,38.70
2023-01-23T08:19:30.071Z,37.00
2023-01-23T08:21:58.346Z,41.40
2023-01-23T08:24:26.818Z,37.50
2023-01-23T08:27:02.340Z,41.70
2023-01-23T08:29:53.130Z,42.40
2023-01-23T08:32:21.448Z,39.70
2023-01-23T08:34:59.763Z,46.30
2023-01-23T08:37:36.916Z,46.10
2023-01-23T08:40:05.452Z,47.60
2023-01-23T08:42:33.737Z,40.90
2023-01-23T08:45:02.185Z,42.10
2023-01-23T08:47:30.798Z,43.50
2023-01-23T08:49:58.916Z,44.00
2023-01-23T08:52:27.229Z,46.20
2023-01-23T08:55:04.541Z,40.80
2023-01-23T08:57:35.317Z,56.60
2023-01-23T09:00:12.861Z,57.60
2023-01-23T09:02:41.039Z,82.60
2023-01-23T09:05:09.757Z,125.40
2023-01-23T09:07:38.232Z,70.70
2023-01-23T09:10:26.876Z,51.90
2023-01-23T09:12:55.387Z,54.60
2023-01-23T09:15:23.810Z,50.50
2023-01-23T09:18:01.417Z,48.40
2023-01-23T09:20:39.614Z,52.70
2023-01-23T09:23:10.326Z,47.90
2023-01-23T09:25:44.755Z,47.50
2023-01-23T09:28:15.998Z,50.00
2023-01-23T09:30:44.207Z,49.20
2023-01-23T09:33:26.018Z,40.70
2023-01-23T09:36:08.852Z,45.60
2023-01-23T09:38:57.257Z,41.50
2023-01-23T09:41:26.918Z,45.40
2023-01-23T09:44:03.773Z,42.40
2023-01-23T09:47:10.264Z,44.60
2023-01-23T09:49:44.359Z,43.00
2023-01-23T09:52:16.932Z,49.00
2023-01-23T09:54:49.947Z,49.00
2023-01-23T09:57:21.012Z,42.80
2023-01-23T10:00:00.249Z,51.80
2023-01-23T10:02:41.887Z,42.80
2023-01-23T10:05:16.824Z,37.20
2023-01-23T10:08:00.226Z,37.50
2023-01-23T10:10:33.633Z,49.00
2023-01-23T10:13:25.422Z,46.90
2023-01-23T10:16:11.448Z,54.20
2023-01-23T10:18:48.475Z,46.70
2023-01-23T10:21:28.056Z,48.20
2023-01-23T10:24:05.070Z,49.20
2023-01-23T10:26:37.077Z,54.00
2023-01-23T10:29:18.490Z,77.40
2023-01-23T10:31:51.236Z,66.50
2023-01-23T10:34:35.358Z,54.00
2023-01-23T10:37:09.542Z,49.30
2023-01-23T10:39:48.018Z,61.80
2023-01-23T10:42:21.842Z,66.50
2023-01-23T10:44:55.137Z,52.60
2023-01-23T10:47:27.986Z,42.40
2023-01-23T10:50:03.176Z,57.50
2023-01-23T10:52:37.781Z,53.10
2023-01-23T10:55:26.332Z,53.30
2023-01-23T10:57:58.238Z,57.70
2023-01-23T11:00:46.013Z,56.90
2023-01-23T11:03:25.674Z,49.30
2023-01-23T11:06:17.688Z,49.00
2023-01-23T11:08:56.158Z,56.10
2023-01-23T11:11:27.663Z,76.50
2023-01-23T11:14:06.399Z,72.30
2023-01-23T11:16:58.049Z,50.60
2023-01-23T11:19:30.790Z,49.30
2023-01-23T11:22:02.641Z,45.70
2023-01-23T11:24:41.015Z,49.40
2023-01-23T11:27:31.001Z,53.10
2023-01-23T11:30:17.979Z,51.80
2023-01-23T11:32:59.611Z,53.70
2023-01-23T11:35:44.654Z,51.80
2023-01-23T11:38:13.730Z,59.50
2023-01-23T11:40:42.498Z,55.10
2023-01-23T11:43:20.109Z,61.10
2023-01-23T11:45:54.765Z,67.70
2023-01-23T11:48:42.694Z,24.30
2023-01-23T11:51:35.717Z,46.00
2023-01-23T11:54:19.767Z,49.10
2023-01-23T11:56:50.577Z,51.10
2023-01-23T11:59:21.387Z,40.30
2023-01-23T12:02:28.438Z,53.40
2023-01-23T12:05:16.693Z,61.50
2023-01-23T12:07:53.635Z,47.10
2023-01-23T12:10:42.709Z,38.60
2023-01-23T12:13:46.025Z,42.40
2023-01-23T12:16:55.336Z,44.20
2023-01-23T12:19:42.431Z,45.90
2023-01-23T12:22:17.876Z,48.10
2023-01-23T12:24:55.392Z,46.10
2023-01-23T12:27:23.649Z,47.40
2023-01-23T12:30:10.671Z,64.60
2023-01-23T12:32:56.075Z,64.70
2023-01-23T12:35:35.967Z,54.90
2023-01-23T12:38:15.570Z,46.40
2023-01-23T12:40:56.023Z,50.30
2023-01-23T12:43:33.450Z,45.60
2023-01-23T12:46:08.549Z,58.30
2023-01-23T12:48:52.186Z,74.10
2023-01-23T12:51:30.379Z,48.20
2023-01-23T12:54:24.415Z,51.50
2023-01-23T12:56:52.964Z,62.10
2023-01-23T12:59:30.906Z,61.90
2023-01-23T13:02:10.329Z,58.20
2023-01-23T13:05:00.808Z,52.50
2023-01-23T13:07:58.052Z,55.70
2023-01-23T13:11:03.594Z,50.50
2023-01-23T13:13:35.369Z,58.20
2023-01-23T13:16:25.053Z,51.00
2023-01-23T13:19:12.762Z,47.20
2023-01-23T13:22:02.836Z,58.70
2023-01-23T13:25:12.856Z,54.80
2023-01-23T13:27:45.467Z,60.60
2023-01-23T13:30:36.417Z,57.10
2023-01-23T13:33:07.645Z,50.30
2023-01-23T13:35:44.926Z,52.00
2023-01-23T13:38:45.302Z,61.60
2023-01-23T13:41:18.341Z,64.30
2023-01-23T13:43:49.796Z,60.50
2023-01-23T13:46:27.052Z,58.70
2023-01-23T14:22:54.046Z,64.90
2023-01-23T14:25:22.546Z,60.70
2023-01-23T14:28:01.485Z,84.80
2023-01-23T14:30:37.097Z,71.20
2023-01-23T14:33:10.834Z,61.30
2023-01-23T14:35:43.075Z,63.70
2023-01-23T14:38:28.570Z,76.90
2023-01-23T14:41:05.441Z,70.60
2023-01-23T14:43:43.340Z,69.20
2023-01-23T14:46:19.415Z,63.40
2023-01-23T14:48:54.552Z,70.40
2023-01-23T14:51:37.399Z,57.10
2023-01-23T14:54:18.117Z,66.10
2023-01-23T15:00:14.256Z,64.10
2023-01-23T15:02:45.907Z,64.50
2023-01-23T15:05:14.309Z,86.00
2023-01-23T15:07:50.772Z,81.60
2023-01-23T15:10:23.531Z,93.90
2023-01-23T15:13:02.117Z,82.40
2023-01-23T15:15:30.833Z,91.20
2023-01-23T15:18:03.823Z,73.00
2023-01-23T15:20:41.700Z,95.10
2023-01-23T15:23:19.207Z,75.80
2023-01-23T15:26:30.936Z,74.50
2023-01-23T15:29:09.218Z,79.90
2023-01-23T15:31:50.839Z,74.30
2023-01-23T15:34:21.590Z,68.30
2023-01-23T15:37:06.408Z,82.40
2023-01-23T15:39:36.896Z,74.40
2023-01-23T15:42:16.767Z,83.60
2023-01-23T15:44:45.454Z,86.10
2023-01-23T15:47:16.847Z,83.10
2023-01-23T15:49:45.055Z,80.00
2023-01-23T15:52:19.541Z,58.20
2023-01-23T15:54:51.840Z,86.90
2023-01-23T15:57:23.171Z,77.00
2023-01-23T15:59:51.371Z,84.70
2023-01-23T16:02:30.562Z,68.60
2023-01-23T16:05:01.203Z,84.30
2023-01-23T16:07:34.496Z,75.00
2023-01-23T16:10:08.194Z,77.00
2023-01-23T16:12:38.822Z,73.50
2023-01-23T16:15:26.019Z,81.80
2023-01-23T16:17:57.499Z,67.80
2023-01-23T16:20:37.052Z,71.00
2023-01-23T16:23:24.866Z,70.90
2023-01-23T16:25:53.379Z,74.70
2023-01-23T16:28:22.935Z,79.10
2023-01-23T16:30:52.188Z,79.30
2023-01-23T16:33:23.521Z,80.30
2023-01-23T16:38:25.650Z,80.70
2023-01-23T16:40:56.736Z,71.00
2023-01-23T16:43:25.053Z,75.80
2023-01-23T16:45:56.081Z,75.60
2023-01-23T16:48:44.702Z,76.10
2023-01-23T16:51:12.773Z,82.40
2023-01-23T16:53:42.645Z,78.60
2023-01-23T16:56:33.918Z,81.20
2023-01-23T16:59:19.235Z,79.20
2023-01-23T17:01:48.531Z,82.20
2023-01-23T17:04:18.701Z,78.10
2023-01-23T17:06:47.493Z,70.80
2023-01-23T17:09:25.340Z,56.20
2023-01-23T17:11:54.543Z,75.80
2023-01-23T17:14:30.078Z,75.20
2023-01-23T17:17:02.346Z,77.50
2023-01-23T17:19:36.598Z,76.30
2023-01-23T17:22:05.664Z,74.10
2023-01-23T17:24:33.973Z,72.90
2023-01-23T17:27:02.182Z,65.10
2023-01-23T17:29:30.243Z,75.50
2023-01-23T17:31:58.449Z,52.90
2023-01-23T17:34:28.082Z,73.90
2023-01-23T17:36:56.696Z,53.90
2023-01-23T17:39:34.960Z,62.60
2023-01-23T17:42:03.394Z,80.60
2023-01-23T17:44:34.947Z,76.70
2023-01-23T17:47:03.336Z,79.30
2023-01-23T17:49:32.184Z,93.00
2023-01-23T17:52:01.059Z,80.30
2023-01-23T17:54:33.066Z,86.70
2023-01-23T17:57:03.577Z,76.40
2023-01-23T17:59:34.441Z,83.00
2023-01-23T18:02:02.749Z,69.90
2023-01-23T18:04:33.247Z,60.90
2023-01-23T18:07:01.335Z,85.50
2023-01-23T18:09:38.763Z,81.00
2023-01-23T18:12:10.736Z,62.90
2023-01-23T18:15:19.439Z,74.40
2023-01-23T18:18:00.048Z,81.40
2023-01-23T18:20:28.739Z,81.10
2023-01-23T18:22:57.297Z,47.70
2023-01-23T18:25:31.063Z,83.10
2023-01-23T18:28:02.285Z,72.70
2023-01-23T18:33:05.671Z,56.70
2023-01-23T18:35:58.263Z,83.30
2023-01-23T18:38:29.535Z,78.40
2023-01-23T18:41:16.496Z,85.70
2023-01-23T18:43:50.618Z,72.70
2023-01-23T18:46:23.865Z,85.20
2023-01-23T18:49:04.678Z,82.10
2023-01-23T18:51:39.045Z,77.10
2023-01-23T18:54:35.836Z,87.90
2023-01-23T18:57:40.812Z,77.10
2023-01-23T19:00:16.940Z,80.40
2023-01-23T19:02:55.260Z,86.80
2023-01-23T19:05:32.939Z,97.60
2023-01-23T19:08:04.195Z,99.30
2023-01-23T19:11:01.733Z,73.50
2023-01-23T19:13:40.574Z,57.00
2023-01-23T19:16:35.793Z,70.80
2023-01-23T19:19:15.832Z,80.70
2023-01-23T19:21:46.642Z,80.70
2023-01-23T19:24:20.697Z,84.10
2023-01-23T19:26:52.438Z,75.80
2023-01-23T19:29:23.513Z,67.30
2023-01-23T19:32:09.427Z,86.80
2023-01-23T19:34:37.689Z,46.20
2023-01-23T19:37:15.197Z,79.00
2023-01-23T19:39:44.036Z,64.40
2023-01-23T19:42:23.560Z,69.50
2023-01-23T19:44:54.843Z,72.60
2023-01-23T19:47:22.799Z,65.30
2023-01-23T19:49:53.625Z,89.00
2023-01-23T19:52:24.757Z,72.00
2023-01-23T19:54:53.028Z,77.10
2023-01-23T19:57:21.094Z,74.60
2023-01-23T19:59:57.488Z,81.40
2023-01-23T20:02:26.490Z,86.90
2023-01-23T20:04:57.514Z,71.90
2023-01-23T20:07:25.726Z,93.20
2023-01-23T20:09:57.455Z,53.20
2023-01-23T20:12:25.749Z,91.90
2023-01-23T20:14:57.391Z,81.80
2023-01-23T20:17:25.565Z,66.30
2023-01-23T20:19:53.550Z,82.30
2023-01-23T20:22:24.659Z,105.70
2023-01-23T20:24:54.989Z,49.90
2023-01-23T20:27:23.225Z,94.90
2023-01-23T20:29:53.898Z,94.60
2023-01-23T20:32:36.938Z,56.80
2023-01-23T20:35:05.222Z,84.10
2023-01-23T20:37:33.147Z,90.40
2023-01-23T20:40:03.899Z,102.80
2023-01-23T20:42:34.551Z,87.10
2023-01-23T20:45:06.283Z,75.20
2023-01-23T20:47:37.741Z,85.60
2023-01-23T20:50:12.464Z,67.10
2023-01-23T20:53:19.316Z,84.60
2023-01-23T20:56:29.463Z,62.20
2023-01-23T20:59:16.269Z,102.90
2023-01-23T21:02:23.084Z,109.30
2023-01-23T21:04:54.210Z,62.80
2023-01-23T21:07:22.632Z,76.80
2023-01-23T21:09:58.478Z,51.00
2023-01-23T21:12:29.300Z,103.80
2023-01-23T21:15:00.579Z,67.80
2023-01-23T21:17:36.173Z,87.60
2023-01-23T21:20:04.614Z,83.60
2023-01-23T21:22:38.358Z,83.20
2023-01-23T21:25:10.174Z,76.30
2023-01-23T21:27:38.434Z,64.40
2023-01-23T21:30:07.076Z,66.10
2023-01-23T21:32:35.448Z,80.20
2023-01-23T21:35:03.757Z,43.40
2023-01-23T21:37:47.331Z,74.70
2023-01-23T21:40:18.528Z,61.70
2023-01-23T21:42:46.941Z,74.20
2023-01-23T21:45:15.034Z,85.20
2023-01-23T21:47:56.071Z,74.60
2023-01-23T21:50:27.059Z,82.80
2023-01-23T21:52:55.305Z,78.30
2023-01-23T21:55:26.002Z,88.10
2023-01-23T21:58:08.862Z,87.40
2023-01-23T22:01:16.053Z,80.10
2023-01-23T22:03:47.347Z,78.00
2023-01-23T22:06:45.735Z,68.40
2023-01-23T22:09:33.196Z,75.80
2023-01-23T22:12:17.318Z,72.80
2023-01-23T22:14:45.351Z,67.70
2023-01-23T22:17:13.773Z,69.50
2023-01-23T22:19:45.222Z,74.70
2023-01-23T22:22:15.424Z,65.60
2023-01-23T22:25:03.938Z,81.00
2023-01-23T22:27:50.244Z,71.90
2023-01-23T22:30:31.067Z,68.60
2023-01-23T22:33:39.909Z,69.30
2023-01-23T22:36:39.151Z,75.90
2023-01-23T22:39:13.923Z,69.50
2023-01-23T22:41:44.599Z,64.90
2023-01-23T22:44:22.002Z,69.40
2023-01-23T22:46:50.617Z,57.60
2023-01-23T22:49:18.720Z,66.30
2023-01-23T22:51:46.956Z,57.10
2023-01-23T22:54:25.187Z,72.90
2023-01-23T22:56:55.794Z,64.00
2023-01-23T22:59:35.329Z,69.00
2023-01-23T23:02:08.487Z,70.60
